Time;durP1;ratioP1;P1;durP2;ratioP2;P2;SDS_P1;SDS_P2;PMS_P1;PMS_P2;Temp;Humidity;BMP_temperature;BMP_pressure;BME280_temperature;BME280_humidity;BME280_pressure;Samples;Min_cycle;Max_cycle;Signal;HPM_P1;HPM_P2
2021/07/14 00:02:42;;;;;;;0.93;0.80;;;24.20;61.30;;;;;;6239742;28;20164;-70
2021/07/14 00:05:42;;;;;;;1.33;1.00;;;24.20;61.20;;;;;;6239638;28;20036;-69
2021/07/14 00:08:43;;;;;;;1.52;1.00;;;24.20;61.20;;;;;;6239388;28;20112;-70
2021/07/14 00:11:54;;;;;;;1.70;0.93;;;24.20;61.20;;;;;;6239523;28;20085;-70
2021/07/14 00:15:14;;;;;;;1.25;0.90;;;24.20;61.20;;;;;;6234659;28;20030;-70
2021/07/14 00:24:53;;;;;;;1.17;0.90;;;24.20;61.30;;;;;;6228765;28;20026;-70
2021/07/14 00:27:53;;;;;;;1.23;0.85;;;24.20;61.40;;;;;;6238674;28;20088;-70
2021/07/14 00:31:00;;;;;;;3.40;1.13;;;24.20;61.30;;;;;;6238912;28;20025;-70
2021/07/14 00:34:01;;;;;;;1.52;1.00;;;24.20;61.30;;;;;;6238773;28;20104;-70
2021/07/14 00:37:02;;;;;;;1.10;0.85;;;24.20;61.30;;;;;;6238822;28;20053;-70
2021/07/14 00:40:07;;;;;;;2.38;1.10;;;24.20;61.40;;;;;;6238552;28;20086;-70
2021/07/14 00:43:07;;;;;;;1.92;1.13;;;24.20;61.30;;;;;;6239110;28;20029;-69
2021/07/14 00:46:19;;;;;;;2.03;1.00;;;24.20;61.30;;;;;;6238584;28;20083;-70
2021/07/14 00:49:20;;;;;;;1.08;0.98;;;24.20;61.30;;;;;;6238843;28;20108;-70
2021/07/14 00:52:21;;;;;;;1.05;0.95;;;24.20;61.40;;;;;;6238726;28;20442;-70
2021/07/14 00:55:21;;;;;;;1.15;0.85;;;24.20;61.30;;;;;;6227947;28;20026;-70
2021/07/14 00:58:22;;;;;;;1.58;1.23;;;24.20;61.30;;;;;;6243592;28;20033;-70
2021/07/14 01:01:24;;;;;;;1.50;1.17;;;24.20;61.40;;;;;;6243292;28;20024;-70
2021/07/14 01:04:31;;;;;;;1.35;1.02;;;24.20;62.20;;;;;;6244035;28;20021;-69
2021/07/14 01:07:41;;;;;;;1.20;0.80;;;24.20;61.30;;;;;;6243497;28;20021;-70
2021/07/14 01:10:47;;;;;;;1.33;0.80;;;24.20;61.30;;;;;;6258589;28;20090;-69
2021/07/14 01:14:00;;;;;;;1.02;0.90;;;24.20;61.30;;;;;;6243487;28;20100;-70
2021/07/14 01:17:11;;;;;;;1.08;0.80;;;24.20;61.40;;;;;;6243515;28;20390;-69
2021/07/14 01:20:23;;;;;;;1.10;1.00;;;24.20;61.40;;;;;;6243354;28;20435;-69
2021/07/14 01:23:34;;;;;;;2.63;1.00;;;24.20;61.30;;;;;;6234876;28;20504;-70
2021/07/14 01:26:53;;;;;;;1.40;0.95;;;24.20;61.40;;;;;;6233230;28;20112;-70
2021/07/14 01:29:57;;;;;;;0.88;0.80;;;24.20;61.40;;;;;;6242985;28;20076;-70
2021/07/14 01:33:01;;;;;;;1.45;1.00;;;24.20;61.40;;;;;;6242723;28;20211;-70
2021/07/14 01:36:04;;;;;;;1.60;1.00;;;24.20;61.40;;;;;;6242501;28;20025;-69
2021/07/14 01:39:06;;;;;;;1.08;0.88;;;24.20;61.40;;;;;;6243036;28;20209;-70
2021/07/14 01:42:10;;;;;;;1.20;0.80;;;24.20;61.40;;;;;;6242659;28;20476;-70
2021/07/14 01:45:12;;;;;;;1.20;1.00;;;24.20;61.40;;;;;;6242279;28;20675;-70
2021/07/14 01:48:15;;;;;;;1.08;0.90;;;24.20;61.40;;;;;;6242895;28;20059;-69
2021/07/14 01:51:16;;;;;;;1.25;1.10;;;24.20;61.40;;;;;;6242424;28;20072;-70
2021/07/14 01:54:21;;;;;;;1.05;0.95;;;24.20;61.40;;;;;;6227835;28;20463;-71
2021/07/14 01:57:22;;;;;;;1.20;1.10;;;24.20;61.30;;;;;;6234989;28;20386;-70
2021/07/14 02:00:23;;;;;;;1.20;0.90;;;24.20;61.40;;;;;;6241843;28;20397;-69
2021/07/14 02:06:29;;;;;;;1.10;0.73;;;24.20;61.40;;;;;;6240780;28;20096;-70
2021/07/14 02:09:32;;;;;;;0.80;0.80;;;24.20;61.40;;;;;;6217270;28;20448;-70
2021/07/14 02:12:34;;;;;;;0.95;0.88;;;24.20;61.40;;;;;;6233462;28;20512;-70
2021/07/14 02:15:37;;;;;;;1.00;0.80;;;24.20;61.40;;;;;;6236246;28;20041;-69
2021/07/14 02:18:44;;;;;;;1.10;0.85;;;24.20;61.40;;;;;;6217273;28;20453;-70
2021/07/14 02:21:44;;;;;;;1.00;0.90;;;24.20;61.40;;;;;;6225534;28;20029;-70
2021/07/14 02:24:45;;;;;;;1.98;1.15;;;24.20;61.40;;;;;;6222591;28;20084;-70
2021/07/14 02:27:46;;;;;;;1.15;0.93;;;24.20;61.30;;;;;;6232802;28;20050;-70
2021/07/14 02:30:47;;;;;;;1.15;0.90;;;24.20;61.40;;;;;;6241721;28;20048;-70
2021/07/14 02:33:47;;;;;;;0.82;0.82;;;24.20;61.40;;;;;;6241425;28;20040;-70
2021/07/14 02:36:49;;;;;;;1.42;1.13;;;24.20;61.40;;;;;;6241145;28;20053;-70
2021/07/14 02:39:52;;;;;;;1.17;0.93;;;24.20;61.30;;;;;;6241537;28;20049;-70
2021/07/14 02:42:57;;;;;;;0.88;0.70;;;24.20;61.40;;;;;;6241505;28;20078;-70
2021/07/14 02:46:00;;;;;;;1.17;1.00;;;24.20;61.40;;;;;;6241361;28;20030;-70
2021/07/14 02:49:04;;;;;;;1.30;1.10;;;24.20;61.40;;;;;;6241453;28;20125;-70
2021/07/14 02:52:07;;;;;;;1.77;0.85;;;24.20;61.40;;;;;;6241207;28;20021;-70
2021/07/14 02:55:15;;;;;;;0.90;0.90;;;24.20;61.40;;;;;;6219688;28;20037;-70
2021/07/14 02:58:15;;;;;;;1.13;1.02;;;24.20;61.40;;;;;;6232075;28;20029;-69
2021/07/14 03:01:17;;;;;;;1.88;1.15;;;24.20;61.40;;;;;;6240823;28;20029;-70
2021/07/14 03:04:18;;;;;;;1.20;1.00;;;24.20;61.40;;;;;;6240958;28;20028;-69
2021/07/14 03:07:23;;;;;;;0.82;0.80;;;24.20;61.40;;;;;;6240645;28;20029;-69
2021/07/14 03:10:25;;;;;;;0.70;0.70;;;24.20;62.30;;;;;;6241053;28;20025;-70
2021/07/14 03:13:28;;;;;;;1.25;0.93;;;24.20;62.20;;;;;;6240672;28;20037;-70
2021/07/14 03:16:32;;;;;;;0.90;0.90;;;24.20;61.40;;;;;;6240119;28;20048;-70
2021/07/14 03:19:34;;;;;;;0.93;0.85;;;24.20;61.40;;;;;;6240296;28;20064;-69
2021/07/14 03:22:41;;;;;;;1.00;0.95;;;24.20;61.40;;;;;;6238667;28;20809;-70
2021/07/14 03:25:42;;;;;;;1.48;1.00;;;24.20;61.40;;;;;;6215460;28;20080;-70
2021/07/14 03:28:43;;;;;;;1.10;1.00;;;24.20;61.40;;;;;;6230875;28;20269;-70
2021/07/14 03:31:45;;;;;;;1.10;1.00;;;24.20;61.40;;;;;;6239947;28;20096;-69
2021/07/14 03:34:46;;;;;;;1.00;0.90;;;24.20;61.40;;;;;;6240070;28;20017;-70
2021/07/14 03:37:48;;;;;;;1.23;1.08;;;24.20;61.40;;;;;;6239457;28;20024;-69
2021/07/14 03:40:50;;;;;;;1.15;1.00;;;24.20;61.40;;;;;;6240106;28;20025;-70
2021/07/14 03:43:52;;;;;;;0.95;0.90;;;24.20;61.40;;;;;;6239910;28;20279;-71
2021/07/14 03:46:54;;;;;;;1.08;0.98;;;24.20;61.40;;;;;;6222490;28;20014;-70
2021/07/14 03:49:57;;;;;;;1.10;0.90;;;24.20;61.40;;;;;;6237132;28;20029;-70
2021/07/14 03:52:57;;;;;;;1.33;0.95;;;24.20;61.40;;;;;;6235965;28;20227;-70
2021/07/14 03:55:59;;;;;;;1.13;0.85;;;24.20;62.30;;;;;;6215065;28;20397;-70
2021/07/14 03:59:00;;;;;;;1.00;0.90;;;24.20;61.40;;;;;;6228342;28;20078;-70
2021/07/14 04:02:01;;;;;;;1.25;0.95;;;24.20;61.40;;;;;;6239696;28;20381;-70
2021/07/14 04:05:03;;;;;;;1.30;1.02;;;24.20;61.40;;;;;;6239393;28;20067;-70
2021/07/14 04:08:04;;;;;;;1.05;0.95;;;24.20;61.50;;;;;;6239192;28;20488;-70
2021/07/14 04:11:06;;;;;;;0.90;0.75;;;24.20;61.40;;;;;;6239652;28;20048;-71
2021/07/14 04:14:06;;;;;;;1.05;0.95;;;24.20;61.40;;;;;;6239963;28;20104;-70
2021/07/14 04:17:07;;;;;;;1.23;0.93;;;24.20;61.40;;;;;;6255676;28;20029;-70
2021/07/14 04:20:08;;;;;;;1.30;0.90;;;24.20;61.40;;;;;;6239859;28;20026;-70
2021/07/14 04:23:09;;;;;;;1.15;1.00;;;24.20;61.40;;;;;;6235861;28;20550;-69
2021/07/14 04:26:10;;;;;;;0.90;0.90;;;24.20;61.40;;;;;;6239276;28;20029;-69
2021/07/14 04:29:11;;;;;;;2.50;1.00;;;24.20;61.40;;;;;;6238349;28;20819;-69
2021/07/14 04:32:11;;;;;;;1.08;0.90;;;24.20;61.40;;;;;;6239649;28;20112;-70
2021/07/14 04:35:12;;;;;;;1.40;1.15;;;24.20;61.40;;;;;;6238814;28;20383;-70
2021/07/14 04:38:12;;;;;;;1.65;1.40;;;24.20;61.40;;;;;;6239403;28;20485;-70
2021/07/14 04:41:13;;;;;;;1.17;1.00;;;24.20;61.40;;;;;;6239401;28;20034;-70
2021/07/14 04:44:20;;;;;;;1.25;0.95;;;24.20;61.40;;;;;;6238837;28;20064;-70
2021/07/14 04:47:20;;;;;;;1.00;0.90;;;24.20;61.40;;;;;;6238797;28;20026;-70
2021/07/14 04:50:21;;;;;;;0.95;0.85;;;24.20;61.40;;;;;;6238877;28;20029;-70
2021/07/14 04:53:21;;;;;;;1.38;1.10;;;24.20;61.40;;;;;;6231982;28;20045;-70
2021/07/14 04:56:22;;;;;;;1.05;0.95;;;24.20;61.40;;;;;;6238717;28;20032;-69
2021/07/14 04:59:24;;;;;;;1.00;0.90;;;24.20;61.50;;;;;;6238550;28;20017;-70
2021/07/14 05:02:24;;;;;;;1.30;1.20;;;24.20;61.40;;;;;;6224593;28;20034;-69
2021/07/14 05:05:25;;;;;;;1.10;1.00;;;24.20;61.40;;;;;;6229692;28;20061;-69
2021/07/14 05:08:26;;;;;;;1.25;1.10;;;24.20;61.40;;;;;;6213228;28;20535;-71
2021/07/14 05:11:26;;;;;;;1.02;0.82;;;24.20;61.50;;;;;;6213723;28;20053;-70
2021/07/14 05:14:27;;;;;;;5.68;2.78;;;24.20;61.40;;;;;;6224026;28;20048;-70
2021/07/14 05:17:27;;;;;;;9.82;5.00;;;24.20;62.20;;;;;;6238053;28;20746;-69
2021/07/14 05:20:28;;;;;;;14.13;5.55;;;24.10;64.30;;;;;;6238255;28;20040;-69
2021/07/14 05:23:28;;;;;;;11.40;5.82;;;24.10;65.50;;;;;;6238177;28;20392;-69
2021/07/14 05:26:29;;;;;;;14.63;8.30;;;24.10;66.00;;;;;;6222623;28;20014;-69
2021/07/14 05:29:29;;;;;;;18.50;8.48;;;24.10;67.50;;;;;;6228139;28;20099;-70
2021/07/14 05:32:30;;;;;;;13.40;6.22;;;24.00;67.40;;;;;;6234721;28;20069;-70
2021/07/14 05:35:30;;;;;;;7.70;5.00;;;24.10;66.10;;;;;;6231007;28;20498;-70
2021/07/14 05:38:31;;;;;;;7.35;4.15;;;24.10;65.10;;;;;;6213413;28;20026;-70
2021/07/14 05:41:32;;;;;;;6.85;3.58;;;24.10;64.40;;;;;;6236317;28;20033;-69
2021/07/14 05:44:33;;;;;;;6.30;3.45;;;24.20;63.90;;;;;;6242825;28;20709;-69
2021/07/14 05:47:33;;;;;;;4.00;2.85;;;24.20;63.50;;;;;;6243087;28;20057;-69
2021/07/14 05:50:35;;;;;;;4.47;2.97;;;24.20;63.30;;;;;;6242366;28;20099;-70
2021/07/14 05:53:35;;;;;;;3.35;2.58;;;24.20;63.10;;;;;;6233595;28;20046;-71
2021/07/14 05:56:36;;;;;;;4.32;2.80;;;24.20;63.00;;;;;;6235710;28;20072;-70
2021/07/14 05:59:37;;;;;;;2.85;2.42;;;24.20;62.90;;;;;;6237124;28;20054;-69
2021/07/14 06:02:37;;;;;;;3.53;2.55;;;24.20;62.70;;;;;;6209994;28;20386;-69
2021/07/14 06:05:38;;;;;;;4.05;2.60;;;24.20;62.60;;;;;;6224717;28;20021;-69
2021/07/14 06:08:38;;;;;;;4.00;2.40;;;24.20;62.60;;;;;;6235295;28;20083;-71
2021/07/14 06:11:40;;;;;;;3.22;2.50;;;24.20;62.50;;;;;;6236300;28;20100;-70
2021/07/14 06:14:43;;;;;;;2.80;2.13;;;24.20;62.40;;;;;;6244947;28;20032;-69
2021/07/14 06:17:43;;;;;;;3.17;2.45;;;24.20;62.40;;;;;;6244226;28;20482;-70
2021/07/14 06:20:44;;;;;;;4.00;2.60;;;24.20;62.30;;;;;;6244641;28;20040;-69
2021/07/14 06:23:44;;;;;;;3.42;2.30;;;24.20;62.30;;;;;;6233850;28;20026;-70
2021/07/14 06:26:45;;;;;;;3.30;2.38;;;24.20;62.30;;;;;;6234466;28;20025;-69
2021/07/14 06:29:45;;;;;;;2.47;2.10;;;24.20;62.30;;;;;;6244053;28;20053;-69
2021/07/14 06:32:52;;;;;;;2.90;2.30;;;24.20;62.20;;;;;;6244382;28;20026;-70
2021/07/14 06:35:53;;;;;;;2.70;2.13;;;24.20;62.20;;;;;;6244365;28;20022;-70
2021/07/14 06:38:53;;;;;;;2.55;1.98;;;24.20;62.20;;;;;;6244091;28;20041;-70
2021/07/14 06:41:55;;;;;;;2.58;2.15;;;24.20;62.20;;;;;;6244260;28;20121;-69
2021/07/14 06:44:55;;;;;;;3.65;2.40;;;24.20;62.10;;;;;;6244281;28;20033;-69
2021/07/14 06:47:56;;;;;;;3.55;2.55;;;24.20;62.10;;;;;;6244123;28;20111;-69
2021/07/14 06:50:57;;;;;;;2.38;1.75;;;24.20;62.10;;;;;;6243325;28;20041;-69
2021/07/14 06:53:57;;;;;;;2.50;1.98;;;24.20;62.00;;;;;;6231327;28;20034;-69
2021/07/14 06:56:59;;;;;;;5.10;1.70;;;24.20;62.10;;;;;;6231194;28;20543;-70
2021/07/14 07:00:00;;;;;;;2.08;1.80;;;24.20;62.00;;;;;;6243808;28;20025;-69
2021/07/14 07:03:01;;;;;;;3.15;2.35;;;24.20;62.00;;;;;;6243944;28;20148;-69
2021/07/14 07:06:04;;;;;;;3.47;2.00;;;24.20;62.10;;;;;;6243555;28;20030;-69
2021/07/14 07:09:05;;;;;;;2.20;1.95;;;24.20;62.00;;;;;;6243545;28;20112;-70
2021/07/14 07:12:06;;;;;;;3.05;2.15;;;24.20;62.00;;;;;;6243239;28;20036;-69
2021/07/14 07:15:07;;;;;;;2.75;2.03;;;24.20;62.00;;;;;;6243521;28;20037;-69
2021/07/14 07:18:08;;;;;;;2.22;1.77;;;24.20;62.00;;;;;;6242987;28;20021;-70
2021/07/14 07:21:09;;;;;;;3.33;2.28;;;24.20;62.00;;;;;;6243480;28;20495;-70
2021/07/14 07:24:09;;;;;;;2.28;1.83;;;24.20;62.00;;;;;;6229095;28;20033;-70
2021/07/14 07:27:10;;;;;;;3.60;2.20;;;24.20;62.00;;;;;;6227876;28;20050;-70
2021/07/14 07:30:11;;;;;;;2.00;1.70;;;24.20;61.90;;;;;;6243387;28;20083;-69
2021/07/14 07:33:12;;;;;;;2.80;2.17;;;24.20;62.00;;;;;;6243047;28;20029;-70
2021/07/14 07:36:12;;;;;;;2.13;1.85;;;24.20;61.90;;;;;;6242624;28;20025;-70
2021/07/14 07:39:14;;;;;;;2.50;1.80;;;24.20;61.90;;;;;;6243276;28;20558;-69
2021/07/14 07:42:15;;;;;;;3.13;2.00;;;24.20;61.90;;;;;;6243474;28;20072;-70
2021/07/14 07:45:16;;;;;;;3.30;2.03;;;24.20;61.90;;;;;;6242416;28;20104;-70
2021/07/14 07:48:16;;;;;;;2.05;1.80;;;24.20;61.90;;;;;;6242800;28;20051;-70
2021/07/14 07:51:17;;;;;;;3.17;1.80;;;24.20;61.90;;;;;;6242577;28;20026;-71
2021/07/14 07:54:18;;;;;;;2.92;2.03;;;24.20;61.90;;;;;;6227561;28;20088;-69
2021/07/14 07:57:19;;;;;;;2.40;1.73;;;24.20;61.90;;;;;;6223608;28;20452;-70
2021/07/14 08:00:21;;;;;;;2.55;1.98;;;24.20;61.90;;;;;;6242484;28;20120;-69
2021/07/14 08:03:21;;;;;;;2.05;1.73;;;24.20;61.90;;;;;;6241564;28;20477;-69
2021/07/14 08:06:22;;;;;;;2.38;1.85;;;24.20;61.90;;;;;;6242134;28;20021;-70
2021/07/14 08:09:22;;;;;;;2.55;2.10;;;24.20;61.90;;;;;;6242089;28;20030;-69
2021/07/14 08:12:23;;;;;;;2.42;1.92;;;24.20;61.90;;;;;;6242094;28;20033;-69
2021/07/14 08:15:24;;;;;;;1.80;1.65;;;24.20;61.90;;;;;;6241879;28;20114;-70
2021/07/14 08:18:24;;;;;;;2.90;1.77;;;24.20;61.90;;;;;;6242173;28;20511;-70
2021/07/14 08:21:25;;;;;;;1.83;1.63;;;24.20;61.90;;;;;;6242034;28;20021;-69
2021/07/14 08:24:25;;;;;;;2.47;2.08;;;24.20;61.80;;;;;;6225874;28;20038;-70
2021/07/14 08:27:26;;;;;;;2.00;1.75;;;24.20;61.90;;;;;;6219988;28;20053;-69
2021/07/14 08:30:26;;;;;;;3.05;1.80;;;24.20;61.90;;;;;;6241940;28;20571;-70
2021/07/14 08:33:27;;;;;;;2.25;1.80;;;24.20;61.80;;;;;;6241883;28;20033;-70
2021/07/14 08:36:27;;;;;;;2.00;1.80;;;24.20;61.80;;;;;;6241555;28;20113;-70
2021/07/14 08:39:28;;;;;;;2.00;1.73;;;24.20;61.90;;;;;;6241866;28;20634;-69
2021/07/14 08:42:29;;;;;;;2.55;1.90;;;24.20;61.80;;;;;;6241972;28;20068;-69
2021/07/14 08:45:30;;;;;;;2.13;1.75;;;24.20;61.80;;;;;;6241441;28;20036;-70
2021/07/14 08:48:31;;;;;;;1.95;1.63;;;24.20;61.90;;;;;;6241376;28;20025;-70
2021/07/14 08:51:34;;;;;;;2.67;1.85;;;24.20;61.90;;;;;;6242167;28;20415;-70
2021/07/14 08:54:41;;;;;;;1.90;1.70;;;24.20;61.90;;;;;;6241615;28;20029;-70
2021/07/14 08:57:42;;;;;;;1.60;1.50;;;24.20;61.80;;;;;;6234867;28;20022;-69
2021/07/14 09:00:43;;;;;;;1.83;1.55;;;24.20;61.80;;;;;;6241532;28;20477;-70
2021/07/14 09:03:44;;;;;;;1.77;1.67;;;24.20;61.80;;;;;;6242083;28;20442;-69
2021/07/14 09:06:44;;;;;;;2.08;1.88;;;24.20;61.80;;;;;;6242010;28;20025;-70
2021/07/14 09:09:45;;;;;;;2.03;1.52;;;24.20;61.80;;;;;;6241828;28;20082;-69
2021/07/14 09:12:46;;;;;;;2.20;1.70;;;24.20;61.80;;;;;;6241575;28;20045;-69
2021/07/14 09:15:51;;;;;;;2.45;1.80;;;24.20;61.80;;;;;;6245893;28;20030;-69
2021/07/14 09:19:05;;;;;;;1.65;1.45;;;24.20;61.80;;;;;;6246131;28;20026;-69
2021/07/14 09:22:06;;;;;;;2.03;1.80;;;24.20;61.90;;;;;;6246272;28;20084;-70
2021/07/14 09:25:16;;;;;;;1.83;1.55;;;24.20;61.90;;;;;;6240551;28;20029;-70
2021/07/14 09:28:19;;;;;;;2.13;1.73;;;24.20;61.80;;;;;;6245527;28;20068;-69
2021/07/14 09:31:25;;;;;;;1.70;1.60;;;24.20;61.80;;;;;;6246153;28;20567;-70
2021/07/14 09:34:28;;;;;;;1.73;1.52;;;24.20;61.80;;;;;;6245338;28;20124;-71
2021/07/14 09:37:29;;;;;;;1.42;1.30;;;24.20;61.80;;;;;;6245809;28;20056;-71
2021/07/14 09:40:30;;;;;;;1.60;1.50;;;24.20;61.80;;;;;;6242116;28;20033;-70
2021/07/14 09:43:33;;;;;;;1.58;1.48;;;24.20;61.80;;;;;;6245866;28;20021;-70
2021/07/14 09:46:33;;;;;;;2.03;1.83;;;24.20;61.80;;;;;;6245164;28;20033;-69
2021/07/14 09:49:35;;;;;;;1.70;1.52;;;24.20;61.80;;;;;;6245763;28;20026;-70
2021/07/14 09:52:37;;;;;;;2.10;1.73;;;24.20;61.80;;;;;;6232321;28;20037;-70
2021/07/14 09:55:39;;;;;;;1.50;1.40;;;24.20;61.80;;;;;;6237073;28;20093;-70
2021/07/14 09:58:40;;;;;;;1.98;1.60;;;24.20;61.80;;;;;;6245302;28;20635;-70
2021/07/14 10:01:51;;;;;;;1.70;1.58;;;24.20;61.80;;;;;;6260305;28;20029;-69
2021/07/14 10:04:51;;;;;;;1.67;1.40;;;24.20;61.80;;;;;;6245056;28;20021;-70
2021/07/14 10:07:52;;;;;;;1.85;1.52;;;24.20;61.80;;;;;;6235041;28;20053;-70
2021/07/14 10:11:08;;;;;;;1.35;1.25;;;24.20;61.80;;;;;;6236443;28;20025;-70
2021/07/14 10:14:09;;;;;;;1.30;1.20;;;24.20;61.80;;;;;;6245115;28;20323;-69
2021/07/14 10:17:09;;;;;;;1.40;1.30;;;24.20;61.80;;;;;;6244573;28;20384;-70
2021/07/14 10:20:25;;;;;;;1.63;1.50;;;24.20;61.80;;;;;;6260158;28;20131;-70
2021/07/14 10:23:26;;;;;;;1.92;1.48;;;24.20;61.80;;;;;;6236799;28;20377;-70
2021/07/14 10:26:27;;;;;;;1.50;1.40;;;24.20;61.80;;;;;;6237372;28;20033;-69
2021/07/14 10:29:29;;;;;;;1.70;1.40;;;24.20;61.80;;;;;;6243899;28;20429;-70
2021/07/14 10:32:30;;;;;;;1.65;1.30;;;24.20;61.80;;;;;;6244962;28;20065;-70
2021/07/14 10:35:35;;;;;;;1.60;1.25;;;24.20;61.80;;;;;;6244596;28;20029;-70
2021/07/14 10:38:38;;;;;;;1.48;1.38;;;24.20;61.80;;;;;;6244338;28;20065;-70
2021/07/14 10:41:39;;;;;;;1.50;1.35;;;24.20;61.80;;;;;;6243851;28;20021;-70
2021/07/14 10:44:40;;;;;;;1.60;1.25;;;24.20;61.80;;;;;;6244227;28;20724;-70
2021/07/14 10:47:43;;;;;;;1.30;1.20;;;24.20;61.80;;;;;;6244358;28;20018;-70
2021/07/14 10:50:46;;;;;;;1.30;1.20;;;24.20;61.80;;;;;;6243968;28;20052;-70
2021/07/14 10:53:51;;;;;;;1.23;1.13;;;24.20;61.80;;;;;;6233300;28;20397;-70
2021/07/14 10:56:52;;;;;;;1.60;1.40;;;24.20;61.80;;;;;;6237312;28;20026;-70
2021/07/14 10:59:53;;;;;;;1.30;1.20;;;24.20;61.80;;;;;;6243390;28;20109;-70
2021/07/14 11:02:55;;;;;;;1.30;1.17;;;24.20;61.70;;;;;;6244403;28;20022;-69
2021/07/14 11:05:55;;;;;;;1.50;1.40;;;24.20;61.80;;;;;;6243467;28;20083;-70
2021/07/14 11:08:56;;;;;;;1.50;1.40;;;24.20;61.80;;;;;;6243721;28;20033;-70
2021/07/14 11:11:57;;;;;;;1.63;1.33;;;24.20;61.80;;;;;;6240203;28;20034;-69
2021/07/14 11:15:00;;;;;;;1.23;1.13;;;24.20;61.80;;;;;;6218989;28;20017;-70
2021/07/14 11:18:21;;;;;;;1.30;1.20;;;24.20;61.80;;;;;;6242566;28;20013;-69
2021/07/14 11:21:55;;;;;;;1.58;1.48;;;24.20;62.60;;;;;;6242967;28;20029;-70
2021/07/14 11:24:57;;;;;;;1.60;1.50;;;24.20;61.70;;;;;;6222447;28;20030;-70
2021/07/14 11:28:00;;;;;;;1.48;1.17;;;24.20;61.80;;;;;;6241443;28;20053;-70
2021/07/14 11:31:10;;;;;;;1.40;1.30;;;24.20;61.70;;;;;;6242923;28;20120;-69
2021/07/14 11:34:32;;;;;;;1.20;1.10;;;24.20;61.80;;;;;;6243454;28;20314;-70
2021/07/14 11:37:38;;;;;;;1.30;1.17;;;24.20;61.70;;;;;;6242632;28;20068;-69
2021/07/14 11:40:45;;;;;;;1.10;1.00;;;24.20;62.20;;;;;;6243151;28;20033;-69
2021/07/14 11:43:47;;;;;;;1.52;1.25;;;24.20;61.80;;;;;;6242999;28;20084;-70
2021/07/14 11:46:49;;;;;;;1.23;1.13;;;24.20;61.80;;;;;;6243207;28;20099;-69
2021/07/14 11:49:49;;;;;;;1.50;1.20;;;24.20;61.80;;;;;;6244752;28;20021;-69
2021/07/14 11:52:50;;;;;;;1.77;1.45;;;24.20;61.80;;;;;;6241906;28;20461;-69
2021/07/14 11:56:02;;;;;;;1.45;1.35;;;24.20;61.70;;;;;;6219731;28;20035;-70
2021/07/14 11:59:07;;;;;;;1.63;1.23;;;24.20;61.70;;;;;;6243509;28;20032;-69
2021/07/14 12:02:18;;;;;;;1.20;1.10;;;24.20;61.80;;;;;;6243252;28;20052;-70
2021/07/14 12:05:29;;;;;;;1.23;1.13;;;24.20;61.70;;;;;;6243298;28;20021;-70
2021/07/14 12:08:37;;;;;;;1.40;1.30;;;24.20;61.80;;;;;;6243046;28;20037;-70
2021/07/14 12:11:44;;;;;;;1.20;1.10;;;24.20;61.80;;;;;;6242969;28;20033;-70
2021/07/14 12:14:50;;;;;;;1.27;1.17;;;24.20;61.70;;;;;;6225207;28;20052;-70
2021/07/14 12:17:51;;;;;;;1.27;1.17;;;24.20;61.80;;;;;;6232018;28;20428;-69
2021/07/14 12:20:52;;;;;;;1.30;1.20;;;24.20;61.80;;;;;;6242532;28;20488;-70
2021/07/14 12:23:53;;;;;;;0.93;0.93;;;24.30;61.90;;;;;;6245141;28;20018;-69
2021/07/14 12:27:09;;;;;;;1.15;1.05;;;24.20;61.70;;;;;;6222447;28;20384;-70
2021/07/14 12:30:17;;;;;;;1.27;1.13;;;24.20;61.70;;;;;;6241949;28;20445;-69
2021/07/14 12:33:19;;;;;;;1.20;1.10;;;24.20;61.70;;;;;;6241992;28;20396;-70
2021/07/14 12:36:20;;;;;;;1.10;1.00;;;24.20;61.70;;;;;;6241686;28;20100;-70
2021/07/14 12:39:23;;;;;;;1.25;1.15;;;24.20;61.80;;;;;;6242212;28;20025;-70
2021/07/14 12:42:24;;;;;;;1.17;1.08;;;24.20;61.70;;;;;;6241824;28;20025;-70
2021/07/14 12:45:33;;;;;;;1.20;1.10;;;24.20;61.70;;;;;;6242382;28;20416;-70
2021/07/14 12:48:33;;;;;;;1.30;1.20;;;24.20;61.70;;;;;;6241902;28;20087;-70
2021/07/14 12:51:34;;;;;;;1.10;1.00;;;24.20;61.70;;;;;;6245816;28;20116;-70
2021/07/14 12:54:36;;;;;;;1.38;1.08;;;24.20;61.80;;;;;;6230176;28;20033;-70
2021/07/14 12:57:38;;;;;;;1.17;1.08;;;24.20;61.70;;;;;;6230368;28;20211;-69
2021/07/14 13:00:41;;;;;;;1.10;0.93;;;24.20;61.70;;;;;;6246990;28;20029;-70
2021/07/14 13:03:43;;;;;;;1.40;1.30;;;24.20;61.80;;;;;;6247029;28;20025;-70
2021/07/14 13:06:44;;;;;;;1.10;1.00;;;24.20;61.70;;;;;;6246086;28;20075;-70
2021/07/14 13:09:44;;;;;;;1.23;1.13;;;24.20;61.70;;;;;;6246257;28;20098;-69
2021/07/14 13:12:47;;;;;;;1.25;1.10;;;24.20;61.70;;;;;;6245776;28;20117;-69
2021/07/14 13:15:52;;;;;;;1.33;1.10;;;24.20;61.70;;;;;;6246553;28;20025;-69
2021/07/14 13:18:59;;;;;;;0.80;0.80;;;24.30;61.80;;;;;;6245383;28;20026;-70
2021/07/14 13:22:00;;;;;;;0.95;0.95;;;24.20;61.70;;;;;;6244854;28;20039;-70
2021/07/14 13:25:04;;;;;;;1.42;1.30;;;24.20;61.70;;;;;;6224114;28;20477;-69
2021/07/14 13:28:19;;;;;;;1.17;1.08;;;24.20;61.70;;;;;;6227053;28;20049;-69
2021/07/14 13:31:24;;;;;;;1.00;0.90;;;24.20;61.80;;;;;;6246334;28;20030;-69
2021/07/14 13:34:26;;;;;;;1.15;1.05;;;24.20;61.70;;;;;;6245251;28;20029;-70
2021/07/14 13:37:26;;;;;;;0.95;0.93;;;24.20;61.80;;;;;;6245614;28;20064;-70
2021/07/14 13:40:29;;;;;;;0.82;0.82;;;24.20;61.70;;;;;;6245497;28;20431;-70
2021/07/14 13:43:48;;;;;;;1.00;0.90;;;24.20;61.60;;;;;;6245370;28;20561;-69
2021/07/14 13:46:48;;;;;;;0.90;0.90;;;24.30;61.80;;;;;;6245420;28;20021;-70
2021/07/14 13:49:49;;;;;;;1.15;1.05;;;24.20;61.70;;;;;;6245558;28;20348;-70
2021/07/14 13:53:04;;;;;;;1.17;0.93;;;24.20;61.80;;;;;;6243306;28;20037;-70
2021/07/14 13:56:05;;;;;;;;;;;24.20;61.70;;;;;;6246276;28;20022;-69
2021/07/14 13:59:24;;;;;;;1.00;0.90;;;24.20;61.70;;;;;;6245371;28;20372;-69
2021/07/14 14:02:31;;;;;;;0.82;0.82;;;24.20;61.70;;;;;;6245257;28;20064;-69
2021/07/14 14:05:32;;;;;;;0.93;0.88;;;24.20;61.80;;;;;;6245779;28;20049;-70
2021/07/14 14:08:33;;;;;;;0.93;0.90;;;24.20;61.70;;;;;;6245015;28;20030;-69
2021/07/14 14:11:33;;;;;;;1.15;0.98;;;24.20;61.80;;;;;;6245030;28;20510;-69
2021/07/14 14:14:34;;;;;;;1.15;1.05;;;24.20;61.70;;;;;;6244930;28;20018;-70
2021/07/14 14:17:35;;;;;;;0.80;0.80;;;24.20;61.70;;;;;;6245122;28;20075;-70
2021/07/14 14:20:36;;;;;;;1.30;1.20;;;24.20;61.70;;;;;;6244763;28;20025;-70
2021/07/14 14:23:37;;;;;;;0.75;0.75;;;24.20;61.70;;;;;;6237188;28;20053;-70
2021/07/14 14:26:38;;;;;;;0.75;0.75;;;24.20;61.70;;;;;;6244637;28;20504;-70
2021/07/14 14:29:41;;;;;;;0.70;0.70;;;24.20;61.70;;;;;;6244120;28;20049;-70
2021/07/14 14:32:44;;;;;;;0.90;0.90;;;24.20;61.70;;;;;;6244630;28;20036;-69
2021/07/14 14:35:45;;;;;;;0.95;0.93;;;24.20;61.70;;;;;;6243804;28;20107;-69
2021/07/14 14:38:45;;;;;;;0.75;0.75;;;24.20;61.70;;;;;;6230900;28;20095;-69
2021/07/14 14:41:46;;;;;;;0.95;0.90;;;24.20;61.80;;;;;;6244492;28;20132;-70
2021/07/14 14:44:46;;;;;;;0.60;0.60;;;24.20;61.70;;;;;;6243936;28;20156;-70
2021/07/14 14:47:48;;;;;;;0.80;0.80;;;24.20;61.80;;;;;;6229852;28;20033;-69
2021/07/14 14:50:51;;;;;;;0.93;0.82;;;24.20;61.70;;;;;;6236403;28;20026;-70
2021/07/14 14:53:51;;;;;;;0.82;0.80;;;24.20;61.70;;;;;;6233123;28;20096;-70
2021/07/14 14:56:52;;;;;;;1.00;0.90;;;24.20;61.70;;;;;;6244189;28;20492;-69
2021/07/14 14:59:52;;;;;;;0.95;0.90;;;24.20;61.70;;;;;;6244171;28;20037;-70
2021/07/14 15:02:54;;;;;;;0.77;0.77;;;24.20;61.80;;;;;;6244292;28;20037;-69
2021/07/14 15:05:54;;;;;;;0.80;0.80;;;24.20;61.70;;;;;;6243220;28;20440;-69
2021/07/14 15:08:55;;;;;;;0.75;0.75;;;24.20;61.80;;;;;;6243826;28;20026;-70
2021/07/14 15:11:55;;;;;;;0.90;0.80;;;24.20;61.70;;;;;;6243561;28;20037;-70
2021/07/14 15:14:56;;;;;;;1.00;0.90;;;24.20;61.70;;;;;;6242743;28;20388;-69
2021/07/14 15:17:57;;;;;;;0.70;0.70;;;24.20;61.70;;;;;;6243365;28;20527;-69
2021/07/14 15:20:57;;;;;;;1.25;1.00;;;24.20;61.70;;;;;;6243533;28;20025;-69
2021/07/14 15:23:59;;;;;;;0.77;0.77;;;24.20;61.70;;;;;;6230490;28;20041;-70
2021/07/14 15:30:18;;;;;;;1.00;0.90;;;24.30;61.80;;;;;;6242564;28;20115;-69
2021/07/14 15:33:19;;;;;;;1.02;0.93;;;24.20;61.70;;;;;;6243145;28;20098;-71
2021/07/14 15:36:20;;;;;;;0.80;0.80;;;24.20;61.70;;;;;;6242174;28;20392;-69
2021/07/14 15:39:21;;;;;;;0.90;0.80;;;24.20;61.80;;;;;;6234689;28;20030;-70
2021/07/14 15:42:21;;;;;;;1.25;0.75;;;24.20;61.80;;;;;;6227056;28;20104;-70
2021/07/14 15:45:22;;;;;;;0.90;0.80;;;24.20;61.70;;;;;;6222986;28;20049;-70
2021/07/14 15:48:23;;;;;;;0.85;0.75;;;24.20;61.70;;;;;;6235601;28;20022;-70
2021/07/14 15:51:23;;;;;;;0.93;0.82;;;24.20;61.70;;;;;;6216160;28;20488;-69
2021/07/14 15:54:24;;;;;;;0.98;0.90;;;24.20;61.70;;;;;;6214285;28;20061;-70
2021/07/14 15:57:24;;;;;;;0.98;0.90;;;24.20;61.70;;;;;;6221450;28;20109;-70
2021/07/14 16:00:25;;;;;;;0.60;0.60;;;24.20;61.70;;;;;;6221659;28;20033;-69
2021/07/14 16:03:25;;;;;;;21.20;1.30;;;24.20;61.70;;;;;;6225832;28;20053;-71
2021/07/14 16:06:26;;;;;;;1.42;0.82;;;24.30;66.00;;;;;;6223960;28;20037;-72